Time;durP1;ratioP1;P1;durP2;ratioP2;P2;SDS_P1;SDS_P2;PMS_P1;PMS_P2;Temp;Humidity;BMP_temperature;BMP_pressure;BME280_temperature;BME280_humidity;BME280_pressure;Samples;Min_cycle;Max_cycle;Signal;HPM_P1;HPM_P2
2023/05/02 00:02:03;;;;;;;1.90;1.80;;;9.90;99.90;;;;;;5053545;28;20170;-71
2023/05/02 00:04:28;;;;;;;0.80;0.80;;;10.10;99.90;;;;;;5053170;28;20506;-70
2023/05/02 00:06:54;;;;;;;1.80;1.03;;;10.00;99.90;;;;;;5053405;28;20637;-71
2023/05/02 00:09:20;;;;;;;1.23;1.23;;;10.00;99.90;;;;;;5053257;28;20171;-70
2023/05/02 00:11:46;;;;;;;1.42;1.42;;;10.10;99.90;;;;;;5053106;28;20194;-71
2023/05/02 00:14:11;;;;;;;1.03;0.97;;;10.30;99.90;;;;;;5053236;28;20166;-70
2023/05/02 00:16:37;;;;;;;4.10;1.63;;;10.20;99.90;;;;;;5053015;28;20256;-70
2023/05/02 00:19:03;;;;;;;1.57;0.90;;;10.20;99.90;;;;;;5053279;28;20189;-70
2023/05/02 00:21:28;;;;;;;1.07;0.97;;;10.20;99.90;;;;;;5053007;28;20170;-70
2023/05/02 00:23:58;;;;;;;2.93;2.83;;;10.20;99.90;;;;;;5055402;28;20219;-71
2023/05/02 00:26:23;;;;;;;1.48;1.38;;;10.10;99.90;;;;;;5057031;28;20186;-71
2023/05/02 00:28:49;;;;;;;1.00;1.00;;;10.10;99.90;;;;;;5056992;28;20186;-70
2023/05/02 00:31:15;;;;;;;1.70;1.60;;;10.10;99.90;;;;;;5057041;28;20194;-70
2023/05/02 00:33:41;;;;;;;8.43;3.05;;;10.10;99.90;;;;;;5056887;28;20408;-71
2023/05/02 00:36:14;;;;;;;2.57;2.37;;;10.10;99.90;;;;;;5056816;28;20260;-70
2023/05/02 00:38:40;;;;;;;1.70;1.45;;;10.10;99.90;;;;;;5056740;28;20158;-70
2023/05/02 00:41:06;;;;;;;2.37;1.43;;;10.10;99.90;;;;;;5056927;28;20180;-70
2023/05/02 00:43:31;;;;;;;0.80;0.80;;;10.10;99.90;;;;;;5056923;28;20173;-71
2023/05/02 00:45:57;;;;;;;0.87;0.87;;;10.10;99.90;;;;;;5056820;28;20240;-70
2023/05/02 00:48:24;;;;;;;1.42;1.38;;;10.10;99.90;;;;;;5056451;28;20170;-71
2023/05/02 00:50:50;;;;;;;1.92;1.83;;;10.10;99.90;;;;;;5056476;28;20263;-70
2023/05/02 00:53:16;;;;;;;1.83;1.73;;;10.10;99.90;;;;;;5056786;28;20170;-70
2023/05/02 00:55:42;;;;;;;1.90;1.80;;;10.10;99.90;;;;;;5056485;28;20263;-70
2023/05/02 00:58:12;;;;;;;0.63;0.63;;;10.10;99.90;;;;;;5056339;28;20824;-71
2023/05/02 01:01:14;;;;;;;0.85;0.85;;;10.00;99.90;;;;;;5056625;28;20423;-71
2023/05/02 01:03:57;;;;;;;2.00;1.90;;;10.00;99.90;;;;;;5056605;28;20181;-70
2023/05/02 01:07:06;;;;;;;1.45;0.88;;;10.10;99.90;;;;;;5056272;28;20193;-70
2023/05/02 01:10:02;;;;;;;2.45;2.15;;;10.00;99.90;;;;;;5056311;28;20191;-71
2023/05/02 01:12:32;;;;;;;2.33;2.22;;;10.00;99.90;;;;;;5056432;28;20256;-71
2023/05/02 01:15:01;;;;;;;6.28;2.35;;;10.00;99.90;;;;;;5056298;28;20250;-71
2023/05/02 01:17:31;;;;;;;1.90;1.80;;;10.00;99.90;;;;;;5056020;28;20213;-70
2023/05/02 01:20:01;;;;;;;2.90;1.25;;;10.10;99.90;;;;;;5056472;28;20228;-70
2023/05/02 01:22:29;;;;;;;0.88;0.88;;;10.10;99.90;;;;;;5056085;28;20223;-70
2023/05/02 01:25:21;;;;;;;1.42;1.17;;;10.00;99.90;;;;;;5055925;28;20200;-71
2023/05/02 01:27:59;;;;;;;1.98;0.93;;;10.10;99.90;;;;;;5056038;28;20193;-71
2023/05/02 01:30:28;;;;;;;3.75;3.03;;;10.00;99.90;;;;;;5055941;28;20177;-70
2023/05/02 01:32:56;;;;;;;1.60;1.48;;;10.00;99.90;;;;;;5055947;28;20173;-71
2023/05/02 01:35:23;;;;;;;1.67;1.58;;;10.00;99.90;;;;;;5054997;28;20190;-71
2023/05/02 01:37:51;;;;;;;2.00;1.90;;;10.10;99.90;;;;;;5055751;28;20174;-70
2023/05/02 01:40:21;;;;;;;2.15;1.30;;;10.10;99.90;;;;;;5055611;28;20543;-70
2023/05/02 01:42:48;;;;;;;1.25;1.00;;;10.00;99.90;;;;;;5055678;28;20174;-71
2023/05/02 01:45:15;;;;;;;2.97;1.85;;;10.00;99.90;;;;;;5055487;28;20182;-70
2023/05/02 01:47:42;;;;;;;2.17;2.08;;;10.00;99.90;;;;;;5055342;28;20178;-70
2023/05/02 01:50:12;;;;;;;1.15;1.15;;;10.10;99.90;;;;;;5055343;28;20205;-70
2023/05/02 01:52:39;;;;;;;1.55;1.45;;;10.10;99.90;;;;;;5055395;28;20205;-70
2023/05/02 01:55:10;;;;;;;1.27;1.00;;;10.10;99.90;;;;;;5055293;28;20244;-70
2023/05/02 01:57:38;;;;;;;1.77;1.67;;;10.10;99.90;;;;;;5055331;28;20530;-71
2023/05/02 02:00:05;;;;;;;1.05;1.05;;;10.00;99.90;;;;;;5055445;28;20240;-70
2023/05/02 02:02:33;;;;;;;0.50;0.50;;;10.00;99.90;;;;;;5055313;28;20174;-71
2023/05/02 02:05:01;;;;;;;0.98;0.98;;;10.10;99.90;;;;;;5055298;28;20205;-70
2023/05/02 02:07:27;;;;;;;1.23;1.13;;;10.10;99.90;;;;;;5054965;28;20228;-70
2023/05/02 02:09:53;;;;;;;1.90;1.63;;;;;;;;;;5055182;28;20178;-71
2023/05/02 02:12:35;;;;;;;0.63;0.60;;;10.10;99.90;;;;;;5055094;28;20248;-70
2023/05/02 02:15:24;;;;;;;1.80;1.50;;;10.00;99.90;;;;;;5055114;28;20761;-71
2023/05/02 02:18:13;;;;;;;1.35;1.02;;;10.10;99.90;;;;;;5054866;28;20216;-70
2023/05/02 02:20:43;;;;;;;1.50;1.50;;;10.00;99.90;;;;;;5055117;28;20162;-71
2023/05/02 02:23:10;;;;;;;1.13;1.02;;;10.00;99.90;;;;;;5054962;28;20170;-70
2023/05/02 02:25:37;;;;;;;1.63;1.52;;;10.00;99.90;;;;;;5054766;28;20275;-71
2023/05/02 02:28:03;;;;;;;1.65;1.55;;;10.00;99.90;;;;;;5054586;28;20185;-70
2023/05/02 02:30:28;;;;;;;1.88;1.77;;;10.00;99.90;;;;;;5054625;28;20158;-70
2023/05/02 02:32:54;;;;;;;3.23;2.23;;;10.10;99.90;;;;;;5054826;28;20182;-70
2023/05/02 02:35:20;;;;;;;1.80;1.70;;;10.10;99.90;;;;;;5054586;28;20291;-70
2023/05/02 02:37:52;;;;;;;0.50;0.50;;;10.00;99.90;;;;;;5054497;28;20202;-71
2023/05/02 02:40:28;;;;;;;2.28;2.17;;;10.10;99.90;;;;;;5055041;28;20163;-70
2023/05/02 02:43:22;;;;;;;0.73;0.73;;;10.00;99.90;;;;;;5054501;28;20194;-71
2023/05/02 02:45:54;;;;;;;1.30;1.20;;;10.00;99.90;;;;;;5054446;28;20197;-71
2023/05/02 02:48:33;;;;;;;0.40;0.40;;;10.00;99.90;;;;;;5054159;28;20179;-70
2023/05/02 02:51:02;;;;;;;1.58;0.98;;;10.00;99.90;;;;;;5054358;28;20198;-71
2023/05/02 02:53:37;;;;;;;1.13;1.02;;;10.00;99.90;;;;;;5054266;28;20166;-71
2023/05/02 02:56:11;;;;;;;0.82;0.60;;;10.00;99.90;;;;;;5054189;28;20182;-70
2023/05/02 02:58:56;;;;;;;1.48;1.38;;;9.90;99.90;;;;;;5054186;28;20178;-70
2023/05/02 03:01:25;;;;;;;2.20;2.10;;;10.00;99.90;;;;;;5054323;28;20176;-70
2023/05/02 03:03:53;;;;;;;1.20;1.10;;;9.90;99.90;;;;;;5054089;28;20196;-71
2023/05/02 03:06:20;;;;;;;1.05;1.05;;;9.80;99.90;;;;;;5053987;28;20621;-70
2023/05/02 03:08:45;;;;;;;1.08;0.98;;;9.90;99.90;;;;;;5053946;28;20178;-71
2023/05/02 03:11:11;;;;;;;3.30;3.10;;;9.80;99.90;;;;;;5054048;28;20737;-71
2023/05/02 03:13:37;;;;;;;1.53;1.43;;;9.70;99.90;;;;;;5054135;28;20256;-71
2023/05/02 03:16:27;;;;;;;2.40;1.90;;;9.70;99.90;;;;;;5053275;28;20194;-70
2023/05/02 03:18:53;;;;;;;2.75;2.50;;;9.60;99.90;;;;;;5053847;28;20174;-69
2023/05/02 03:21:18;;;;;;;2.60;2.40;;;9.40;99.90;;;;;;5053910;28;20196;-70
2023/05/02 03:23:44;;;;;;;1.57;1.37;;;9.30;99.90;;;;;;5053881;28;20630;-70
2023/05/02 03:26:09;;;;;;;3.20;2.80;;;9.60;99.90;;;;;;5053663;28;20645;-70
2023/05/02 03:28:35;;;;;;;1.73;1.63;;;9.20;99.90;;;;;;5053669;28;20205;-70
2023/05/02 03:31:01;;;;;;;0.50;0.50;;;9.00;99.90;;;;;;5053838;28;20197;-70
2023/05/02 03:33:27;;;;;;;2.10;1.53;;;9.00;99.90;;;;;;5053715;28;20174;-70
2023/05/02 03:35:52;;;;;;;0.80;0.80;;;8.90;99.90;;;;;;5053629;28;20243;-70
2023/05/02 03:38:18;;;;;;;3.07;2.87;;;9.00;99.90;;;;;;5052072;28;20197;-70
2023/05/02 03:40:43;;;;;;;3.23;1.43;;;8.80;99.90;;;;;;5053466;28;20308;-70
2023/05/02 03:43:10;;;;;;;3.53;3.03;;;8.70;99.90;;;;;;5053511;28;20629;-70
2023/05/02 03:45:35;;;;;;;3.20;2.90;;;8.90;99.90;;;;;;5053400;28;20232;-70
2023/05/02 03:48:01;;;;;;;0.87;0.60;;;8.50;99.90;;;;;;5053408;28;20178;-71
2023/05/02 03:50:27;;;;;;;10.47;2.97;;;8.60;99.90;;;;;;5053120;28;20178;-70
2023/05/02 03:52:53;;;;;;;1.33;1.33;;;8.40;99.90;;;;;;5053492;28;20827;-69
2023/05/02 03:55:20;;;;;;;1.50;1.47;;;8.70;99.90;;;;;;5053188;28;20182;-70
2023/05/02 03:57:46;;;;;;;4.88;2.72;;;8.40;99.90;;;;;;5052745;28;20905;-71
2023/05/02 04:00:11;;;;;;;1.27;1.07;;;8.50;99.90;;;;;;5053319;28;20182;-70
2023/05/02 04:02:37;;;;;;;0.67;0.67;;;8.20;99.90;;;;;;5053363;28;20420;-70
2023/05/02 04:05:04;;;;;;;2.10;1.00;;;8.60;99.90;;;;;;5053525;28;20429;-70
2023/05/02 04:07:30;;;;;;;4.03;3.80;;;8.20;99.90;;;;;;5053158;28;20198;-70
2023/05/02 04:09:55;;;;;;;2.50;1.83;;;8.50;99.90;;;;;;5053114;28;20178;-70
2023/05/02 04:12:21;;;;;;;2.03;1.67;;;8.60;99.90;;;;;;5053105;28;20197;-70
2023/05/02 04:14:47;;;;;;;1.30;1.20;;;8.60;99.90;;;;;;5053121;28;20194;-70
2023/05/02 04:17:14;;;;;;;3.33;3.23;;;8.70;99.90;;;;;;5052970;28;20629;-70
2023/05/02 04:19:40;;;;;;;4.32;2.22;;;8.50;99.90;;;;;;5053196;28;20166;-71
2023/05/02 04:22:05;;;;;;;1.93;1.80;;;8.50;99.90;;;;;;5053119;28;20652;-70
2023/05/02 04:24:31;;;;;;;2.27;2.17;;;8.30;99.90;;;;;;5052888;28;20190;-70
2023/05/02 04:26:57;;;;;;;1.73;1.63;;;8.40;99.90;;;;;;5052771;28;20626;-70
2023/05/02 04:29:22;;;;;;;1.97;1.87;;;8.70;99.90;;;;;;5053232;28;20198;-71
2023/05/02 04:31:49;;;;;;;3.40;3.20;;;8.40;99.90;;;;;;5052035;28;20247;-70
2023/05/02 04:34:15;;;;;;;2.28;2.17;;;8.60;99.90;;;;;;5053204;28;20615;-69
2023/05/02 04:36:41;;;;;;;1.00;0.80;;;8.60;99.90;;;;;;5053038;28;20178;-71
2023/05/02 04:39:06;;;;;;;2.00;1.70;;;8.60;99.90;;;;;;5052747;28;20204;-70
2023/05/02 04:41:33;;;;;;;7.53;3.97;;;8.50;99.90;;;;;;5052912;28;20526;-70
2023/05/02 04:43:58;;;;;;;2.40;2.22;;;8.70;99.90;;;;;;5052898;28;20648;-70
2023/05/02 04:46:24;;;;;;;9.27;1.63;;;8.70;99.90;;;;;;5052745;28;20201;-70
2023/05/02 04:48:49;;;;;;;2.07;1.97;;;8.50;99.90;;;;;;5052828;28;20173;-71
2023/05/02 04:51:15;;;;;;;3.60;3.33;;;8.50;99.90;;;;;;5052811;28;20201;-70
2023/05/02 04:53:41;;;;;;;4.37;4.07;;;8.50;99.90;;;;;;5052704;28;20235;-70
2023/05/02 04:56:07;;;;;;;2.30;2.17;;;9.00;99.90;;;;;;5052613;28;20268;-70
2023/05/02 04:58:34;;;;;;;4.50;2.60;;;9.00;99.90;;;;;;5052754;28;20171;-71
2023/05/02 05:01:00;;;;;;;2.13;1.90;;;9.10;99.90;;;;;;5052834;28;20536;-70
2023/05/02 05:03:29;;;;;;;3.10;1.80;;;9.30;99.90;;;;;;5052845;28;20178;-71
2023/05/02 05:05:55;;;;;;;3.95;3.05;;;9.00;99.90;;;;;;5052705;28;20198;-70
2023/05/02 05:08:20;;;;;;;2.20;2.03;;;9.10;99.90;;;;;;5052513;28;20201;-71
2023/05/02 05:10:46;;;;;;;1.40;1.30;;;;;;;;;;5054112;28;20405;-71
2023/05/02 05:13:12;;;;;;;3.35;2.00;;;9.40;99.90;;;;;;5056298;28;20650;-71
2023/05/02 05:15:39;;;;;;;3.77;3.60;;;8.80;99.90;;;;;;5056075;28;20222;-70
2023/05/02 05:18:05;;;;;;;2.58;2.25;;;9.60;99.90;;;;;;5055989;28;20511;-70
2023/05/02 05:20:32;;;;;;;4.00;1.88;;;9.50;99.90;;;;;;5056211;28;20176;-70
2023/05/02 05:22:58;;;;;;;1.95;1.85;;;9.50;99.90;;;;;;5056023;28;20174;-70
2023/05/02 05:25:26;;;;;;;2.73;2.17;;;9.60;99.90;;;;;;5056054;28;20194;-71
2023/05/02 05:27:52;;;;;;;20.45;2.92;;;9.50;99.90;;;;;;5055918;28;20401;-70
2023/05/02 05:30:17;;;;;;;2.60;1.87;;;10.00;99.90;;;;;;5056055;28;20178;-71
2023/05/02 05:32:43;;;;;;;4.13;2.30;;;9.90;99.90;;;;;;5055947;28;20529;-70
2023/05/02 05:35:09;;;;;;;2.17;2.07;;;10.10;99.90;;;;;;5055854;28;20186;-70
2023/05/02 05:37:38;;;;;;;4.83;4.43;;;10.40;99.90;;;;;;5055680;28;20253;-71
2023/05/02 05:40:06;;;;;;;8.23;3.97;;;11.50;99.90;;;;;;5055684;28;20404;-71
2023/05/02 05:42:31;;;;;;;4.17;3.97;;;13.40;99.90;;;;;;5055626;28;20923;-71
2023/05/02 05:44:57;;;;;;;2.77;2.57;;;15.40;99.90;;;;;;5055636;28;20422;-71
2023/05/02 05:47:22;;;;;;;1.47;1.47;;;17.40;96.10;;;;;;5055446;28;20170;-71
2023/05/02 05:49:55;;;;;;;1.97;1.87;;;19.10;91.90;;;;;;5055368;28;20274;-71
2023/05/02 05:52:21;;;;;;;2.63;2.03;;;20.70;86.70;;;;;;5055645;28;20205;-72
2023/05/02 05:54:46;;;;;;;2.10;1.97;;;22.00;80.20;;;;;;5055367;28;20435;-71
2023/05/02 05:57:12;;;;;;;1.87;1.30;;;23.00;76.30;;;;;;5055314;28;20166;-72
2023/05/02 05:59:38;;;;;;;1.27;1.03;;;23.80;70.10;;;;;;5055513;28;20526;-72
2023/05/02 06:02:04;;;;;;;1.50;1.40;;;24.40;66.50;;;;;;5055246;28;20581;-72
2023/05/02 06:04:30;;;;;;;0.60;0.60;;;24.70;62.60;;;;;;5055242;28;20189;-71
2023/05/02 06:06:56;;;;;;;1.50;1.40;;;24.00;59.90;;;;;;5055253;28;20431;-71
2023/05/02 06:09:22;;;;;;;1.67;1.10;;;22.70;59.40;;;;;;5055211;28;20407;-71
2023/05/02 06:11:47;;;;;;;1.10;1.10;;;21.20;62.30;;;;;;5055238;28;20602;-71
2023/05/02 06:14:13;;;;;;;1.53;1.43;;;18.50;90.40;;;;;;5055290;28;20227;-71
2023/05/02 06:16:39;;;;;;;1.50;1.40;;;18.50;70.80;;;;;;5055034;28;20215;-71
2023/05/02 06:19:04;;;;;;;1.87;1.80;;;17.50;72.40;;;;;;5054800;28;20172;-71
2023/05/02 06:21:30;;;;;;;1.17;1.07;;;16.50;74.90;;;;;;5054857;28;20171;-71
2023/05/02 06:23:56;;;;;;;2.47;2.33;;;15.70;80.80;;;;;;5054990;28;20215;-71
2023/05/02 06:26:21;;;;;;;4.30;2.33;;;15.20;82.30;;;;;;5054895;28;20212;-71
2023/05/02 06:28:47;;;;;;;1.57;1.47;;;14.80;87.90;;;;;;5054805;28;20170;-71
2023/05/02 06:31:13;;;;;;;1.13;1.13;;;14.50;90.90;;;;;;5054782;28;20661;-71
2023/05/02 06:33:38;;;;;;;2.37;1.63;;;14.20;91.90;;;;;;5054766;28;20167;-70
2023/05/02 06:36:04;;;;;;;3.70;2.10;;;13.80;94.40;;;;;;5054656;28;20412;-70
2023/05/02 06:38:30;;;;;;;2.20;1.40;;;13.50;96.50;;;;;;5054566;28;20158;-71
2023/05/02 06:40:56;;;;;;;3.23;1.97;;;13.30;97.40;;;;;;5054523;28;20751;-71
2023/05/02 06:43:21;;;;;;;2.23;2.03;;;13.50;97.30;;;;;;5054711;28;20171;-71
2023/05/02 06:45:47;;;;;;;2.63;2.43;;;13.50;97.40;;;;;;5054464;28;20527;-70
2023/05/02 06:48:12;;;;;;;1.60;1.50;;;13.50;97.00;;;;;;5054757;28;20515;-71
2023/05/02 06:50:38;;;;;;;1.93;1.80;;;13.40;97.80;;;;;;5054353;28;20240;-70
2023/05/02 06:53:05;;;;;;;2.43;2.33;;;;;;;;;;5054638;28;20543;-71
2023/05/02 06:55:30;;;;;;;3.10;2.47;;;13.90;96.80;;;;;;5054252;28;20193;-71
2023/05/02 06:57:56;;;;;;;1.70;1.60;;;14.10;97.70;;;;;;5054107;28;20412;-71
2023/05/02 07:00:22;;;;;;;1.93;1.77;;;14.10;96.80;;;;;;5054376;28;20625;-71
2023/05/02 07:02:48;;;;;;;1.30;1.30;;;14.10;96.50;;;;;;5053936;28;20652;-71
2023/05/02 07:05:14;;;;;;;2.10;2.00;;;14.30;96.50;;;;;;5054011;28;20613;-71
2023/05/02 07:07:41;;;;;;;2.30;2.10;;;14.60;95.70;;;;;;5053783;28;20404;-71
2023/05/02 07:10:07;;;;;;;2.30;1.80;;;15.00;95.30;;;;;;5054172;28;20404;-70
2023/05/02 07:12:33;;;;;;;1.67;1.30;;;15.40;94.60;;;;;;5054118;28;20448;-71
2023/05/02 07:14:59;;;;;;;2.10;2.00;;;15.50;94.00;;;;;;5054072;28;20431;-71
2023/05/02 07:17:25;;;;;;;3.30;3.00;;;15.40;93.40;;;;;;5053760;28;20174;-71
2023/05/02 07:19:51;;;;;;;2.67;2.10;;;;;;;;;;5054220;28;20412;-71
2023/05/02 07:22:17;;;;;;;3.07;2.20;;;15.30;90.60;;;;;;5053874;28;20435;-71
2023/05/02 07:24:42;;;;;;;1.83;1.73;;;15.30;91.90;;;;;;5053717;28;20427;-70
2023/05/02 07:27:09;;;;;;;2.73;2.50;;;15.10;91.10;;;;;;5053414;28;20174;-71
2023/05/02 07:29:35;;;;;;;2.20;1.60;;;;;;;;;;5053853;28;20252;-70
2023/05/02 07:32:01;;;;;;;2.63;1.87;;;15.20;90.70;;;;;;5053525;28;20459;-71
2023/05/02 07:34:27;;;;;;;2.17;2.00;;;15.20;91.20;;;;;;5052889;28;20511;-71
2023/05/02 07:36:52;;;;;;;4.10;2.47;;;15.50;92.20;;;;;;5053518;28;20488;-71
2023/05/02 07:39:18;;;;;;;1.10;1.10;;;15.70;91.20;;;;;;5053721;28;20248;-71
2023/05/02 07:41:44;;;;;;;2.53;2.33;;;16.00;90.70;;;;;;5053702;28;20682;-71
2023/05/02 07:44:10;;;;;;;8.93;3.80;;;16.30;99.90;;;;;;5053527;28;20397;-71
2023/05/02 07:46:36;;;;;;;2.90;2.80;;;16.40;87.60;;;;;;5053640;28;20408;-71
2023/05/02 07:49:02;;;;;;;2.30;2.10;;;16.70;87.40;;;;;;5053135;28;20419;-71
2023/05/02 07:51:28;;;;;;;2.83;2.73;;;17.00;84.90;;;;;;5053406;28;20212;-70
2023/05/02 07:53:57;;;;;;;1.73;1.63;;;17.20;82.30;;;;;;5053492;28;20859;-71
2023/05/02 07:56:25;;;;;;;1.70;1.60;;;17.20;85.00;;;;;;5053254;28;20876;-71
2023/05/02 07:58:51;;;;;;;1.23;1.13;;;17.50;84.10;;;;;;5053074;28;20411;-71
2023/05/02 08:01:17;;;;;;;2.30;1.63;;;17.80;82.80;;;;;;5053405;28;20903;-71
2023/05/02 08:03:43;;;;;;;2.30;1.07;;;18.20;80.40;;;;;;5053194;28;20203;-71
2023/05/02 08:06:09;;;;;;;2.07;1.80;;;19.50;77.10;;;;;;5053275;28;20870;-71
2023/05/02 08:08:35;;;;;;;1.53;1.43;;;21.60;71.40;;;;;;5053225;28;20496;-71
2023/05/02 08:11:01;;;;;;;2.03;1.17;;;23.70;62.90;;;;;;5053267;28;20727;-71
2023/05/02 08:13:27;;;;;;;0.93;0.93;;;24.00;55.90;;;;;;5053297;28;20409;-72
2023/05/02 08:15:57;;;;;;;1.30;1.20;;;23.50;56.60;;;;;;5053152;28;20190;-72
2023/05/02 08:18:26;;;;;;;0.70;0.70;;;23.60;54.30;;;;;;5053044;28;20265;-71
2023/05/02 08:20:52;;;;;;;1.40;1.30;;;23.10;54.10;;;;;;5053211;28;20379;-71
2023/05/02 08:23:18;;;;;;;1.47;1.20;;;21.50;54.10;;;;;;5053258;28;20379;-71
2023/05/02 08:25:43;;;;;;;1.37;1.27;;;20.20;60.10;;;;;;5052846;28;20403;-71
2023/05/02 08:28:09;;;;;;;1.50;1.40;;;19.40;62.80;;;;;;5052973;28;20196;-71
2023/05/02 08:30:35;;;;;;;1.57;1.40;;;19.00;65.50;;;;;;5053193;28;20633;-71
2023/05/02 08:33:00;;;;;;;1.17;1.07;;;19.30;61.70;;;;;;5052968;28;20238;-72
2023/05/02 08:35:28;;;;;;;1.03;0.90;;;19.30;64.30;;;;;;5052885;28;20737;-71
2023/05/02 08:37:54;;;;;;;0.90;0.90;;;19.70;68.60;;;;;;5052803;28;20173;-71
2023/05/02 08:40:21;;;;;;;2.10;1.97;;;20.00;58.90;;;;;;5053064;28;20872;-71
2023/05/02 08:42:47;;;;;;;0.87;0.87;;;20.50;57.50;;;;;;5052866;28;20415;-71
2023/05/02 08:45:14;;;;;;;1.10;1.03;;;20.90;57.50;;;;;;5055290;28;20436;-71
2023/05/02 08:47:41;;;;;;;0.50;0.50;;;20.40;55.30;;;;;;5056835;28;20550;-71
2023/05/02 08:50:09;;;;;;;1.10;1.00;;;19.70;55.80;;;;;;5056535;28;20519;-72
2023/05/02 08:52:35;;;;;;;0.77;0.63;;;19.20;57.80;;;;;;5057187;28;20463;-71
2023/05/02 08:55:03;;;;;;;0.87;0.87;;;18.90;57.80;;;;;;5056589;28;20433;-71
2023/05/02 08:57:29;;;;;;;1.33;1.10;;;19.00;58.00;;;;;;5056591;28;20461;-70
2023/05/02 08:59:55;;;;;;;1.43;1.33;;;19.30;59.30;;;;;;5056611;28;20923;-71
2023/05/02 09:02:58;;;;;;;1.50;0.80;;;19.20;54.80;;;;;;5056562;28;20416;-71
2023/05/02 09:05:24;;;;;;;1.17;1.10;;;19.00;57.50;;;;;;5056581;28;20263;-71
2023/05/02 09:07:50;;;;;;;1.07;1.00;;;18.60;56.50;;;;;;5056399;28;20902;-71
2023/05/02 09:10:16;;;;;;;1.40;1.27;;;18.60;56.60;;;;;;5056408;28;20261;-71
2023/05/02 09:12:42;;;;;;;1.63;1.13;;;18.00;56.40;;;;;;5056303;28;20458;-71
2023/05/02 09:15:08;;;;;;;1.00;0.83;;;17.70;57.70;;;;;;5056306;28;20511;-71
2023/05/02 09:17:41;;;;;;;1.83;0.87;;;17.40;58.10;;;;;;5056129;28;20230;-71
2023/05/02 09:20:08;;;;;;;1.90;1.70;;;17.40;58.70;;;;;;5055007;28;20423;-71
2023/05/02 09:22:34;;;;;;;1.63;1.53;;;17.40;59.80;;;;;;5056189;28;20412;-71
2023/05/02 09:25:00;;;;;;;1.23;1.03;;;17.40;62.40;;;;;;5055959;28;20519;-71
2023/05/02 09:27:26;;;;;;;0.60;0.60;;;17.40;63.70;;;;;;5055967;28;20768;-71
2023/05/02 09:30:22;;;;;;;1.53;1.43;;;17.30;62.30;;;;;;5056141;28;20401;-71
2023/05/02 09:32:54;;;;;;;1.00;1.00;;;17.60;64.40;;;;;;5055874;28;20452;-70
2023/05/02 09:35:22;;;;;;;1.13;1.03;;;17.30;65.40;;;;;;5055950;28;20430;-71
2023/05/02 09:37:57;;;;;;;0.60;0.60;;;18.60;63.70;;;;;;5055663;28;20413;-72
2023/05/02 09:40:24;;;;;;;0.90;0.57;;;19.80;60.40;;;;;;5055903;28;20409;-70
2023/05/02 09:42:50;;;;;;;1.20;1.20;;;20.40;57.60;;;;;;5055633;28;20409;-71
2023/05/02 09:45:24;;;;;;;0.50;0.50;;;20.50;56.40;;;;;;5054346;28;20814;-71
2023/05/02 09:47:50;;;;;;;1.00;1.00;;;20.30;56.50;;;;;;5055538;28;20464;-71
2023/05/02 09:50:33;;;;;;;1.37;1.27;;;19.80;56.90;;;;;;5055709;28;20439;-71
2023/05/02 09:53:07;;;;;;;1.53;1.43;;;19.20;58.50;;;;;;5055611;28;20561;-71
2023/05/02 09:55:32;;;;;;;0.40;0.40;;;19.00;62.60;;;;;;5054809;28;20517;-72
2023/05/02 09:57:58;;;;;;;0.60;0.60;;;18.70;64.90;;;;;;5055184;28;20487;-71
2023/05/02 10:00:43;;;;;;;0.80;0.80;;;18.60;63.20;;;;;;5055623;28;20173;-71
2023/05/02 10:03:10;;;;;;;1.80;1.27;;;18.60;63.20;;;;;;5055518;28;20919;-71
2023/05/02 10:05:40;;;;;;;0.83;0.83;;;18.30;59.70;;;;;;5055490;28;20439;-71
2023/05/02 10:08:06;;;;;;;3.43;1.70;;;18.30;68.40;;;;;;5055140;28;20421;-71
2023/05/02 10:10:35;;;;;;;0.90;0.90;;;18.40;71.90;;;;;;5055273;28;20447;-71
2023/05/02 10:13:03;;;;;;;1.73;1.63;;;18.50;72.50;;;;;;5055148;28;20490;-71
2023/05/02 10:15:31;;;;;;;1.50;1.40;;;18.10;66.30;;;;;;5055141;28;20465;-71
2023/05/02 10:18:01;;;;;;;0.90;0.90;;;18.00;68.80;;;;;;5054930;28;20468;-71
2023/05/02 10:20:33;;;;;;;0.50;0.50;;;18.40;71.80;;;;;;5055158;28;20464;-71
2023/05/02 10:23:00;;;;;;;1.40;1.27;;;19.00;72.50;;;;;;5055146;28;20434;-71
2023/05/02 10:25:27;;;;;;;0.87;0.87;;;19.50;69.20;;;;;;5054749;28;20518;-71
2023/05/02 10:27:56;;;;;;;1.23;1.13;;;19.40;66.10;;;;;;5054640;28;20416;-71
2023/05/02 10:30:22;;;;;;;0.50;0.50;;;19.10;71.00;;;;;;5054814;28;20419;-71
2023/05/02 10:32:50;;;;;;;1.27;0.80;;;18.60;71.20;;;;;;5054715;28;20513;-70
2023/05/02 10:35:16;;;;;;;2.07;1.93;;;18.50;73.30;;;;;;5054512;28;20489;-71
2023/05/02 10:37:43;;;;;;;0.70;0.70;;;18.50;69.80;;;;;;5054406;28;20404;-71
2023/05/02 10:40:12;;;;;;;1.00;1.00;;;18.30;68.60;;;;;;5054468;28;20934;-71
2023/05/02 10:42:41;;;;;;;1.43;1.43;;;17.40;70.70;;;;;;5054581;28;20919;-71
2023/05/02 10:45:28;;;;;;;1.23;1.20;;;16.90;74.70;;;;;;5054443;28;20469;-71
2023/05/02 10:48:15;;;;;;;2.17;2.07;;;16.40;78.00;;;;;;5054186;28;20543;-70
2023/05/02 10:50:50;;;;;;;2.63;2.53;;;16.20;79.70;;;;;;5054224;28;21007;-71
2023/05/02 10:53:35;;;;;;;2.27;1.47;;;15.90;80.40;;;;;;5054386;28;20459;-70
2023/05/02 10:56:21;;;;;;;1.73;1.63;;;15.70;80.40;;;;;;5054191;28;20420;-71
2023/05/02 10:59:10;;;;;;;2.43;1.93;;;15.90;81.60;;;;;;5054091;28;20409;-70
2023/05/02 11:01:38;;;;;;;1.50;1.40;;;16.50;82.10;;;;;;5054026;28;20571;-71
2023/05/02 11:04:07;;;;;;;0.97;0.97;;;17.40;78.70;;;;;;5054126;28;20404;-71
2023/05/02 11:06:35;;;;;;;1.10;1.10;;;17.60;76.50;;;;;;5054021;28;20759;-71
2023/05/02 11:09:24;;;;;;;1.50;1.40;;;17.80;74.50;;;;;;5052884;28;20456;-70
2023/05/02 11:11:53;;;;;;;1.07;1.07;;;17.60;74.00;;;;;;5053382;28;20467;-71
2023/05/02 11:14:43;;;;;;;0.70;0.70;;;17.40;94.30;;;;;;5053887;28;20414;-70
2023/05/02 11:17:09;;;;;;;0.90;0.90;;;17.10;75.00;;;;;;5053093;28;20428;-70
2023/05/02 11:19:37;;;;;;;1.30;0.77;;;17.00;73.00;;;;;;5053749;28;20411;-71
2023/05/02 11:22:18;;;;;;;1.00;0.80;;;17.10;73.70;;;;;;5053778;28;20516;-71
2023/05/02 11:24:49;;;;;;;1.03;1.03;;;17.10;75.60;;;;;;5053671;28;20440;-71
2023/05/02 11:27:29;;;;;;;0.83;0.83;;;16.80;75.50;;;;;;5053580;28;20499;-71
2023/05/02 11:30:05;;;;;;;2.20;1.73;;;16.60;74.00;;;;;;5053581;28;20445;-71
2023/05/02 11:32:44;;;;;;;1.37;1.27;;;16.70;74.40;;;;;;5053554;28;20440;-70
2023/05/02 11:35:21;;;;;;;1.17;1.17;;;16.70;74.50;;;;;;5053468;28;20435;-71
2023/05/02 11:37:56;;;;;;;0.50;0.50;;;16.60;73.90;;;;;;5053147;28;20740;-71
2023/05/02 11:40:22;;;;;;;2.53;2.40;;;16.60;74.10;;;;;;5053384;28;20400;-71
2023/05/02 11:42:48;;;;;;;0.97;0.97;;;16.40;74.90;;;;;;5053449;28;20494;-70
2023/05/02 11:45:14;;;;;;;0.97;0.97;;;16.10;76.60;;;;;;5053278;28;20524;-71
2023/05/02 11:47:41;;;;;;;2.53;1.53;;;15.50;77.90;;;;;;5053222;28;20199;-71
2023/05/02 11:50:08;;;;;;;1.00;1.00;;;15.30;79.40;;;;;;5053167;28;20522;-71
2023/05/02 11:52:42;;;;;;;1.10;1.07;;;15.30;80.50;;;;;;5053179;28;20535;-71
2023/05/02 11:55:13;;;;;;;4.30;2.50;;;15.40;81.00;;;;;;5053098;28;20420;-71
2023/05/02 11:57:39;;;;;;;1.67;1.57;;;15.50;80.50;;;;;;5053219;28;20568;-70
2023/05/02 12:00:12;;;;;;;1.57;1.47;;;15.60;81.60;;;;;;5053431;28;20415;-70
2023/05/02 12:02:42;;;;;;;0.80;0.80;;;15.60;80.70;;;;;;5053345;28;20906;-71
2023/05/02 12:05:12;;;;;;;1.77;1.67;;;15.80;82.50;;;;;;5053411;28;20460;-71
2023/05/02 12:07:45;;;;;;;1.90;1.23;;;16.00;81.60;;;;;;5052835;28;21002;-71
2023/05/02 12:10:12;;;;;;;2.13;2.00;;;16.20;79.40;;;;;;5053223;28;20929;-71
2023/05/02 12:12:39;;;;;;;0.90;0.90;;;16.30;77.50;;;;;;5053220;28;20486;-71
2023/05/02 12:15:07;;;;;;;2.17;2.07;;;16.40;77.40;;;;;;5053081;28;20426;-70
2023/05/02 12:17:37;;;;;;;1.03;1.03;;;16.40;78.10;;;;;;5052990;28;20397;-71
2023/05/02 12:20:05;;;;;;;0.70;0.70;;;16.40;77.90;;;;;;5055400;28;20405;-70
2023/05/02 12:22:30;;;;;;;0.83;0.83;;;16.40;78.60;;;;;;5057275;28;20408;-71
2023/05/02 12:24:57;;;;;;;1.83;1.83;;;16.40;76.80;;;;;;5057145;28;20781;-71
2023/05/02 12:27:23;;;;;;;0.90;0.90;;;16.40;77.10;;;;;;5057003;28;20170;-71
2023/05/02 12:29:50;;;;;;;0.83;0.83;;;16.30;77.40;;;;;;5057164;28;20836;-71
2023/05/02 12:32:30;;;;;;;0.77;0.77;;;16.30;77.10;;;;;;5056876;28;20452;-71
2023/05/02 12:34:56;;;;;;;0.60;0.60;;;16.20;79.70;;;;;;5056888;28;20605;-71
2023/05/02 12:37:23;;;;;;;2.20;2.10;;;16.20;85.40;;;;;;5056733;28;20487;-71
2023/05/02 12:39:49;;;;;;;1.47;1.37;;;16.10;84.20;;;;;;5056850;28;20972;-71
2023/05/02 12:42:19;;;;;;;2.53;1.80;;;16.30;82.40;;;;;;5056953;28;20504;-71
2023/05/02 12:44:46;;;;;;;1.10;1.00;;;16.50;81.40;;;;;;5056780;28;20605;-71
2023/05/02 12:47:14;;;;;;;1.17;1.00;;;16.70;80.30;;;;;;5056536;28;20935;-71
2023/05/02 12:49:56;;;;;;;0.90;0.90;;;17.00;80.40;;;;;;5056585;28;20835;-71
2023/05/02 12:52:45;;;;;;;0.87;0.87;;;17.00;76.50;;;;;;5056518;28;20448;-70
2023/05/02 12:55:15;;;;;;;0.80;0.80;;;16.90;77.50;;;;;;5056686;28;20423;-71
2023/05/02 12:57:41;;;;;;;1.07;1.07;;;16.60;75.80;;;;;;5056276;28;20738;-71
2023/05/02 13:00:07;;;;;;;0.73;0.73;;;16.50;76.40;;;;;;5056535;28;20499;-70